Time;durP1;ratioP1;P1;durP2;ratioP2;P2;SDS_P1;SDS_P2;PMS_P1;PMS_P2;Temp;Humidity;BMP_temperature;BMP_pressure;BME280_temperature;BME280_humidity;BME280_pressure;Samples;Min_cycle;Max_cycle;Signal;HPM_P1;HPM_P2
2024/02/21 00:01:38;;;;;;;34.47;13.77;;;8.00;99.90;;;;;;5070951;28;20036;-58
2024/02/21 00:04:04;;;;;;;58.58;16.02;;;8.00;99.90;;;;;;5067728;28;20052;-58
2024/02/21 00:06:29;;;;;;;33.20;12.98;;;8.00;99.90;;;;;;5069726;28;20059;-58
2024/02/21 00:08:55;;;;;;;37.20;14.15;;;8.00;99.90;;;;;;5070217;28;20020;-58
2024/02/21 00:11:21;;;;;;;43.38;14.23;;;8.00;99.90;;;;;;5070728;28;20020;-58
2024/02/21 00:13:46;;;;;;;32.22;14.05;;;8.00;99.90;;;;;;5069280;28;20066;-58
2024/02/21 00:16:13;;;;;;;38.80;11.80;;;8.00;99.90;;;;;;5070634;28;20486;-59
2024/02/21 00:18:38;;;;;;;35.00;12.07;;;8.00;99.90;;;;;;5074011;28;20308;-59
2024/02/21 00:21:04;;;;;;;43.75;12.25;;;8.00;99.90;;;;;;5067264;28;20078;-59
2024/02/21 00:23:29;;;;;;;34.72;12.07;;;8.00;99.90;;;;;;5070389;28;20074;-59
2024/02/21 00:25:55;;;;;;;34.58;12.02;;;8.00;99.90;;;;;;5068442;28;20056;-59
2024/02/21 00:28:21;;;;;;;38.40;11.05;;;8.00;99.90;;;;;;5070220;28;20475;-58
2024/02/21 00:30:47;;;;;;;31.23;11.38;;;8.00;99.90;;;;;;5068542;28;20020;-59
2024/02/21 00:33:13;;;;;;;35.83;12.40;;;8.10;99.90;;;;;;5068601;28;20051;-58
2024/02/21 00:35:39;;;;;;;37.90;11.57;;;8.10;99.90;;;;;;5069993;28;20255;-58
2024/02/21 00:38:04;;;;;;;25.02;9.63;;;8.10;99.90;;;;;;5072238;28;20066;-58
2024/02/21 00:40:30;;;;;;;33.13;11.00;;;8.10;99.90;;;;;;5067825;28;20113;-58
2024/02/21 00:42:56;;;;;;;35.17;12.60;;;8.10;99.90;;;;;;5070369;28;20017;-58
2024/02/21 00:45:21;;;;;;;28.23;11.65;;;8.10;99.90;;;;;;5067935;28;20055;-58
2024/02/21 00:47:47;;;;;;;36.50;12.02;;;8.10;99.90;;;;;;5068162;28;20115;-58
2024/02/21 00:50:12;;;;;;;28.55;10.63;;;8.20;99.90;;;;;;5069895;28;20036;-58
2024/02/21 00:52:38;;;;;;;37.38;12.35;;;8.20;99.90;;;;;;5069710;28;20020;-58
2024/02/21 00:55:04;;;;;;;28.65;12.10;;;8.20;99.90;;;;;;5067836;28;20119;-58
2024/02/21 00:57:30;;;;;;;30.30;11.57;;;8.20;99.90;;;;;;5069254;28;20020;-58
2024/02/21 00:59:55;;;;;;;32.60;11.50;;;8.20;99.90;;;;;;5069548;28;20185;-58
2024/02/21 01:02:20;;;;;;;32.90;12.75;;;8.20;99.90;;;;;;5069708;28;20021;-58
2024/02/21 01:04:46;;;;;;;37.75;12.82;;;8.30;99.90;;;;;;5067999;28;20491;-58
2024/02/21 01:07:11;;;;;;;34.17;13.68;;;8.30;99.90;;;;;;5069136;28;20036;-58
2024/02/21 01:09:37;;;;;;;30.63;12.35;;;8.30;99.90;;;;;;5067746;28;20694;-58
2024/02/21 01:12:03;;;;;;;29.02;12.38;;;8.30;99.90;;;;;;5070700;28;20017;-58
2024/02/21 01:14:28;;;;;;;31.20;14.30;;;8.30;99.90;;;;;;5068360;28;20023;-58
2024/02/21 01:16:54;;;;;;;42.08;15.18;;;8.20;99.90;;;;;;5069801;28;20021;-58
2024/02/21 01:19:19;;;;;;;28.90;11.80;;;8.30;99.90;;;;;;5067717;28;20012;-58
2024/02/21 01:21:45;;;;;;;30.02;13.05;;;8.30;99.90;;;;;;5069932;28;20588;-58
2024/02/21 01:24:10;;;;;;;32.33;14.43;;;8.30;99.90;;;;;;5067880;28;20077;-58
2024/02/21 01:26:36;;;;;;;43.05;13.70;;;8.30;99.90;;;;;;5067157;28;20120;-58
2024/02/21 01:29:01;;;;;;;33.53;13.70;;;8.30;99.90;;;;;;5067778;28;20025;-58
2024/02/21 01:31:27;;;;;;;32.25;13.88;;;8.30;99.90;;;;;;5067998;28;20386;-58
2024/02/21 01:33:52;;;;;;;43.95;15.25;;;8.40;99.90;;;;;;5069488;28;20024;-58
2024/02/21 01:36:18;;;;;;;33.67;13.35;;;8.40;99.90;;;;;;5067139;28;20501;-58
2024/02/21 01:38:43;;;;;;;36.28;14.63;;;8.40;99.90;;;;;;5069576;28;20028;-58
2024/02/21 01:41:09;;;;;;;33.75;14.63;;;8.40;99.90;;;;;;5067736;28;20108;-58
2024/02/21 01:43:35;;;;;;;37.35;15.80;;;8.40;99.90;;;;;;5066877;28;20036;-60
2024/02/21 01:46:00;;;;;;;36.50;13.93;;;8.40;99.90;;;;;;5067484;28;20017;-58
2024/02/21 01:48:26;;;;;;;38.78;15.80;;;8.40;99.90;;;;;;5069404;28;20029;-58
2024/02/21 01:50:53;;;;;;;46.85;16.42;;;8.40;99.90;;;;;;5066720;28;20128;-58
2024/02/21 01:53:23;;;;;;;37.92;16.10;;;8.40;99.90;;;;;;5068901;28;20575;-58
2024/02/21 01:55:49;;;;;;;38.72;16.13;;;8.40;99.90;;;;;;5067574;28;20055;-58
2024/02/21 01:58:16;;;;;;;39.95;16.30;;;8.40;99.90;;;;;;5069179;28;20580;-58
2024/02/21 02:00:46;;;;;;;45.47;17.35;;;8.40;99.90;;;;;;5068323;28;20446;-58
2024/02/21 02:03:16;;;;;;;39.60;18.05;;;8.40;99.90;;;;;;5067733;28;20020;-58
2024/02/21 02:05:46;;;;;;;46.63;18.45;;;8.40;99.90;;;;;;5067708;28;20115;-58
2024/02/21 02:08:13;;;;;;;40.72;19.50;;;8.40;99.90;;;;;;5068173;28;20143;-58
2024/02/21 02:10:39;;;;;;;59.72;20.00;;;8.50;99.90;;;;;;5067344;28;20036;-59
2024/02/21 02:13:05;;;;;;;39.83;17.17;;;8.40;99.90;;;;;;5068307;28;20031;-58
2024/02/21 02:15:47;;;;;;;42.42;17.65;;;8.40;99.90;;;;;;5067999;28;20418;-58
2024/02/21 02:18:14;;;;;;;50.83;18.67;;;8.40;99.90;;;;;;5066041;28;20024;-58
2024/02/21 02:20:41;;;;;;;41.00;17.60;;;8.50;99.90;;;;;;5068076;28;20021;-58
2024/02/21 02:23:24;;;;;;;51.72;18.80;;;8.50;99.90;;;;;;5068322;28;20371;-58
2024/02/21 02:25:53;;;;;;;48.38;18.17;;;8.50;99.90;;;;;;5067662;28;20077;-58
2024/02/21 02:28:19;;;;;;;43.92;18.83;;;8.50;99.90;;;;;;5071575;28;20074;-59
2024/02/21 02:30:45;;;;;;;40.05;18.63;;;8.50;99.90;;;;;;5071282;28;20033;-58
2024/02/21 02:33:10;;;;;;;43.90;18.23;;;8.50;99.90;;;;;;5072077;28;20055;-58
2024/02/21 02:35:36;;;;;;;47.33;19.58;;;8.50;99.90;;;;;;5070952;28;20021;-58
2024/02/21 02:38:02;;;;;;;45.08;18.13;;;8.50;99.90;;;;;;5063815;28;20020;-58
2024/02/21 02:40:28;;;;;;;38.72;17.90;;;8.50;99.90;;;;;;5070657;28;20032;-58
2024/02/21 02:42:55;;;;;;;40.10;17.77;;;8.50;99.90;;;;;;5070682;28;20041;-59
2024/02/21 02:45:23;;;;;;;42.13;15.95;;;8.50;99.90;;;;;;5070348;28;20093;-59
2024/02/21 02:47:48;;;;;;;42.85;17.33;;;8.50;99.90;;;;;;5069788;28;20347;-59
2024/02/21 02:50:14;;;;;;;44.13;16.98;;;8.50;99.90;;;;;;5071003;28;20509;-59
2024/02/21 02:52:40;;;;;;;38.60;17.67;;;8.50;99.90;;;;;;5070315;28;20092;-59
2024/02/21 02:55:06;;;;;;;38.70;16.30;;;8.50;99.90;;;;;;5070301;28;20035;-59
2024/02/21 02:57:31;;;;;;;40.55;17.13;;;8.60;99.90;;;;;;5071078;28;20032;-59
2024/02/21 02:59:57;;;;;;;44.95;16.23;;;8.60;99.90;;;;;;5070436;28;20044;-60
2024/02/21 03:02:23;;;;;;;37.00;16.88;;;8.50;99.90;;;;;;5070365;28;20017;-59
2024/02/21 03:04:49;;;;;;;40.88;17.95;;;8.60;99.90;;;;;;5070120;28;20078;-59
2024/02/21 03:07:15;;;;;;;37.70;16.08;;;8.60;99.90;;;;;;5070657;28;20024;-59
2024/02/21 03:09:42;;;;;;;40.78;15.57;;;8.60;99.90;;;;;;5070182;28;20021;-59
2024/02/21 03:12:08;;;;;;;47.55;17.45;;;8.60;99.90;;;;;;5070457;28;20442;-59
2024/02/21 03:14:34;;;;;;;35.47;16.42;;;8.60;99.90;;;;;;5070114;28;20231;-59
2024/02/21 03:17:00;;;;;;;39.00;15.88;;;8.60;99.90;;;;;;5078436;28;20502;-59
2024/02/21 03:19:26;;;;;;;39.70;15.52;;;8.60;99.90;;;;;;5078130;28;20035;-59
2024/02/21 03:21:52;;;;;;;31.45;15.25;;;8.60;99.90;;;;;;5076128;28;20123;-59
2024/02/21 03:24:18;;;;;;;32.97;16.40;;;8.60;99.90;;;;;;5071596;28;20106;-59
2024/02/21 03:26:44;;;;;;;44.42;17.85;;;8.60;99.90;;;;;;5069257;28;20025;-59
2024/02/21 03:29:11;;;;;;;36.65;15.93;;;8.60;99.90;;;;;;5069954;28;20039;-59
2024/02/21 03:31:37;;;;;;;34.47;15.63;;;8.70;99.90;;;;;;5069834;28;20492;-59
2024/02/21 03:34:03;;;;;;;45.22;17.75;;;8.60;99.90;;;;;;5070372;28;20020;-59
2024/02/21 03:36:28;;;;;;;31.80;14.90;;;8.70;99.90;;;;;;5068373;28;20024;-59
2024/02/21 03:38:57;;;;;;;39.13;16.42;;;8.70;99.90;;;;;;5071497;28;20571;-59
2024/02/21 03:41:22;;;;;;;36.45;15.90;;;8.70;99.90;;;;;;5081438;28;20028;-59
2024/02/21 03:43:48;;;;;;;38.10;16.35;;;8.70;99.90;;;;;;5070573;28;20021;-59
2024/02/21 03:46:15;;;;;;;30.55;16.75;;;8.70;99.90;;;;;;5088040;28;20029;-59
2024/02/21 03:48:40;;;;;;;34.53;16.35;;;8.70;99.90;;;;;;5072576;28;20047;-59
2024/02/21 03:51:06;;;;;;;33.63;15.77;;;8.70;99.90;;;;;;5077509;28;20109;-59
2024/02/21 03:53:32;;;;;;;31.90;15.48;;;8.70;99.90;;;;;;5075209;28;20032;-59
2024/02/21 03:56:02;;;;;;;35.67;17.20;;;8.70;99.90;;;;;;5070626;28;20166;-59
2024/02/21 03:58:28;;;;;;;40.92;17.75;;;8.70;99.90;;;;;;5075863;28;20492;-57
2024/02/21 04:00:53;;;;;;;34.15;17.90;;;8.70;99.90;;;;;;5079949;28;20040;-58
2024/02/21 04:03:19;;;;;;;35.92;18.65;;;8.70;99.90;;;;;;5083266;28;20476;-59
2024/02/21 04:05:45;;;;;;;36.17;17.30;;;8.80;99.90;;;;;;5077387;28;20043;-59
2024/02/21 04:08:12;;;;;;;34.03;16.25;;;8.80;99.90;;;;;;5080518;28;20020;-59
2024/02/21 04:10:37;;;;;;;34.63;17.17;;;8.80;99.90;;;;;;5072440;28;20043;-59
2024/02/21 04:13:05;;;;;;;43.40;17.83;;;8.80;99.90;;;;;;5079836;28;20560;-59
2024/02/21 04:15:30;;;;;;;38.17;17.80;;;8.80;99.90;;;;;;5087558;28;20389;-59
2024/02/21 04:17:56;;;;;;;36.55;17.08;;;8.80;99.90;;;;;;5077268;28;20036;-59
2024/02/21 04:20:21;;;;;;;42.20;17.35;;;8.90;99.90;;;;;;5069040;28;20466;-59
2024/02/21 04:22:47;;;;;;;38.55;16.77;;;8.80;99.90;;;;;;5075073;28;20027;-59
2024/02/21 04:25:12;;;;;;;41.63;18.45;;;8.80;99.90;;;;;;5073115;28;20030;-59
2024/02/21 04:27:38;;;;;;;38.00;17.90;;;8.80;99.90;;;;;;5079617;28;20540;-59
2024/02/21 04:30:05;;;;;;;36.30;16.88;;;8.80;99.90;;;;;;5079708;28;20239;-59
2024/02/21 04:32:30;;;;;;;41.30;17.27;;;8.80;99.90;;;;;;5072920;28;20030;-59
2024/02/21 04:34:56;;;;;;;35.85;16.23;;;8.80;99.90;;;;;;5085214;28;20111;-59
2024/02/21 04:37:21;;;;;;;38.83;17.10;;;8.80;99.90;;;;;;5087149;28;20091;-59
2024/02/21 04:39:48;;;;;;;37.65;17.52;;;8.80;99.90;;;;;;5070033;28;20071;-59
2024/02/21 04:42:14;;;;;;;33.67;15.75;;;8.90;99.90;;;;;;5080198;28;20012;-59
2024/02/21 04:44:40;;;;;;;33.35;17.05;;;8.80;99.90;;;;;;5069682;28;20047;-59
2024/02/21 04:47:06;;;;;;;36.00;15.75;;;8.80;99.90;;;;;;5075522;28;20048;-59
2024/02/21 04:49:32;;;;;;;32.85;16.63;;;8.80;99.90;;;;;;5081971;28;20590;-59
2024/02/21 04:51:57;;;;;;;38.08;17.60;;;8.80;99.90;;;;;;5077961;28;20020;-59
2024/02/21 04:54:23;;;;;;;32.60;15.90;;;8.80;99.90;;;;;;5080775;28;20073;-59
2024/02/21 04:56:48;;;;;;;35.13;17.02;;;8.80;99.90;;;;;;5082448;28;20024;-59
2024/02/21 04:59:14;;;;;;;37.40;15.77;;;8.80;99.90;;;;;;5068200;28;20028;-59
2024/02/21 05:01:39;;;;;;;34.97;16.92;;;8.80;99.90;;;;;;5075159;28;20016;-58
2024/02/21 05:04:06;;;;;;;35.60;15.57;;;8.90;99.90;;;;;;5073523;28;20444;-59
2024/02/21 05:06:31;;;;;;;29.15;14.68;;;8.80;99.90;;;;;;5067735;28;20425;-59
2024/02/21 05:08:57;;;;;;;30.42;15.05;;;8.90;99.90;;;;;;5077310;28;20036;-59
2024/02/21 05:11:24;;;;;;;29.17;16.40;;;8.80;99.90;;;;;;5080724;28;20024;-59
2024/02/21 05:13:50;;;;;;;34.53;16.08;;;8.80;99.90;;;;;;5069873;28;20485;-59
2024/02/21 05:16:15;;;;;;;36.72;15.73;;;8.90;99.90;;;;;;5072171;28;20062;-59
2024/02/21 05:18:42;;;;;;;34.08;16.65;;;8.90;99.90;;;;;;5078123;28;20091;-59
2024/02/21 05:21:08;;;;;;;28.05;16.05;;;8.90;99.90;;;;;;5074563;28;20385;-59
2024/02/21 05:23:33;;;;;;;29.75;15.50;;;8.90;99.90;;;;;;5075508;28;20104;-59
2024/02/21 05:25:59;;;;;;;26.25;15.07;;;8.90;99.90;;;;;;5066265;28;20082;-59
2024/02/21 05:28:25;;;;;;;36.72;16.67;;;8.80;99.90;;;;;;5071708;28;20016;-59
2024/02/21 05:30:50;;;;;;;30.90;15.30;;;8.90;99.90;;;;;;5069308;28;20406;-59
2024/02/21 05:33:21;;;;;;;34.05;16.33;;;8.80;99.90;;;;;;5068014;28;20445;-59
2024/02/21 05:35:47;;;;;;;;;;;8.80;99.90;;;;;;5081762;28;20141;-59
2024/02/21 05:38:12;;;;;;;29.20;15.90;;;8.80;99.90;;;;;;5074610;28;19912;-59
2024/02/21 05:40:38;;;;;;;35.58;16.00;;;8.80;99.90;;;;;;5074106;28;20025;-59
2024/02/21 05:43:04;;;;;;;35.40;15.82;;;8.90;99.90;;;;;;5072665;28;20427;-59
2024/02/21 05:45:29;;;;;;;41.58;16.88;;;8.90;99.90;;;;;;5067186;28;20062;-58
2024/02/21 05:47:57;;;;;;;30.30;15.55;;;8.90;99.90;;;;;;5074036;28;20048;-59
2024/02/21 05:50:23;;;;;;;33.30;15.93;;;8.90;99.90;;;;;;5074293;28;20057;-59
2024/02/21 05:52:52;;;;;;;32.60;16.70;;;8.90;99.90;;;;;;5067239;28;20347;-59
2024/02/21 05:55:17;;;;;;;37.17;17.40;;;8.90;99.90;;;;;;5073264;28;20394;-59
2024/02/21 05:57:43;;;;;;;35.13;15.60;;;8.90;99.90;;;;;;5080680;28;20071;-59
2024/02/21 06:00:09;;;;;;;30.52;16.58;;;9.00;99.90;;;;;;5076265;28;20396;-59
2024/02/21 06:02:34;;;;;;;39.38;17.10;;;8.90;99.90;;;;;;5080820;28;20074;-59
2024/02/21 06:05:00;;;;;;;34.78;16.92;;;8.90;99.90;;;;;;5077663;28;20096;-58
2024/02/21 06:07:26;;;;;;;33.13;17.40;;;9.00;99.90;;;;;;5076683;28;20020;-59
2024/02/21 06:09:51;;;;;;;34.80;16.08;;;9.00;99.90;;;;;;5071953;28;20081;-59
2024/02/21 06:12:17;;;;;;;38.17;16.08;;;9.00;99.90;;;;;;5070951;28;20115;-59
2024/02/21 06:14:42;;;;;;;41.20;17.95;;;9.00;99.90;;;;;;5077087;28;20027;-59
2024/02/21 06:17:08;;;;;;;32.05;16.05;;;8.90;99.90;;;;;;5072122;28;20036;-58
2024/02/21 06:19:33;;;;;;;38.22;19.35;;;8.90;99.90;;;;;;5070896;28;20028;-58
2024/02/21 06:21:59;;;;;;;33.22;17.50;;;8.90;99.90;;;;;;5077291;28;20477;-58
2024/02/21 06:24:24;;;;;;;38.08;17.08;;;8.90;99.90;;;;;;5077427;28;20552;-58
2024/02/21 06:26:50;;;;;;;35.25;17.50;;;8.90;99.90;;;;;;5070901;28;20493;-58
2024/02/21 06:29:15;;;;;;;31.30;18.08;;;8.90;99.90;;;;;;5072914;28;20444;-58
2024/02/21 06:31:41;;;;;;;34.83;17.67;;;8.90;99.90;;;;;;5082368;28;20056;-58
2024/02/21 06:34:06;;;;;;;37.15;17.30;;;8.90;99.90;;;;;;5076841;28;20558;-58
2024/02/21 06:36:32;;;;;;;35.72;16.48;;;8.90;99.90;;;;;;5074905;28;20009;-58
2024/02/21 06:38:58;;;;;;;34.17;16.00;;;8.90;99.90;;;;;;5076831;28;20036;-58
2024/02/21 06:41:24;;;;;;;32.35;16.58;;;8.90;99.90;;;;;;5069300;28;20052;-58
2024/02/21 06:43:50;;;;;;;39.08;17.60;;;8.90;99.90;;;;;;5070948;28;20125;-58
2024/02/21 06:46:26;;;;;;;30.42;16.40;;;8.90;99.90;;;;;;5073771;28;20166;-58
2024/02/21 06:48:52;;;;;;;29.58;16.13;;;9.00;99.90;;;;;;5084718;28;20493;-58
2024/02/21 06:51:17;;;;;;;34.08;17.77;;;8.90;99.90;;;;;;5076633;28;20021;-58
2024/02/21 06:53:43;;;;;;;39.58;17.25;;;9.00;99.90;;;;;;5071180;28;20524;-58
2024/02/21 06:56:09;;;;;;;32.90;16.67;;;8.90;99.90;;;;;;5078913;28;20024;-58
2024/02/21 06:58:36;;;;;;;30.10;16.10;;;9.00;99.90;;;;;;5074080;28;20052;-58
2024/02/21 07:01:01;;;;;;;33.53;16.83;;;9.00;99.90;;;;;;5076109;28;20029;-58
2024/02/21 07:03:27;;;;;;;37.80;16.58;;;9.00;99.90;;;;;;5074924;28;20016;-58
2024/02/21 07:05:53;;;;;;;33.92;17.90;;;9.00;99.90;;;;;;5076920;28;20424;-58
2024/02/21 07:08:18;;;;;;;30.27;16.27;;;9.00;99.90;;;;;;5072030;28;20025;-58
2024/02/21 07:10:44;;;;;;;36.97;19.30;;;8.90;99.90;;;;;;5069944;28;20028;-58
2024/02/21 07:13:09;;;;;;;36.33;15.70;;;8.90;99.90;;;;;;5070365;28;20028;-58
2024/02/21 07:15:36;;;;;;;34.50;16.95;;;8.90;99.90;;;;;;5068767;28;20024;-58
2024/02/21 07:18:01;;;;;;;25.45;15.18;;;8.90;99.90;;;;;;5070098;28;20023;-58
2024/02/21 07:20:27;;;;;;;38.08;16.08;;;8.90;99.90;;;;;;5074554;28;20282;-58
2024/02/21 07:22:53;;;;;;;30.75;16.10;;;8.90;99.90;;;;;;5070692;28;20021;-58
2024/02/21 07:25:18;;;;;;;34.03;15.23;;;8.90;99.90;;;;;;5069793;28;20090;-59
2024/02/21 07:27:44;;;;;;;30.85;15.93;;;9.00;99.90;;;;;;5075173;28;20085;-58
2024/02/21 07:30:10;;;;;;;30.92;16.90;;;9.00;99.90;;;;;;5074802;28;20035;-58
2024/02/21 07:32:36;;;;;;;25.83;15.02;;;8.90;99.90;;;;;;5074702;28;20024;-58
2024/02/21 07:35:02;;;;;;;27.85;15.35;;;9.00;99.90;;;;;;5066658;28;20035;-58
2024/02/21 07:37:27;;;;;;;30.98;16.17;;;9.00;99.90;;;;;;5074056;28;20098;-58
2024/02/21 07:39:53;;;;;;;27.55;14.52;;;9.10;99.90;;;;;;5082284;28;20042;-58
2024/02/21 07:42:18;;;;;;;32.03;14.88;;;9.10;99.90;;;;;;5078349;28;20386;-58
2024/02/21 07:44:44;;;;;;;33.50;14.70;;;9.10;99.90;;;;;;5082776;28;20035;-58
2024/02/21 07:47:13;;;;;;;28.25;14.70;;;9.10;99.90;;;;;;5070484;28;20468;-58
2024/02/21 07:49:48;;;;;;;28.65;13.25;;;9.20;99.90;;;;;;5067689;28;20482;-58
2024/02/21 07:52:14;;;;;;;26.38;14.68;;;9.20;99.90;;;;;;5067545;28;20420;-58
2024/02/21 07:54:40;;;;;;;34.58;14.30;;;9.20;99.90;;;;;;5067103;28;20024;-58
2024/02/21 07:57:07;;;;;;;27.38;14.85;;;9.20;99.90;;;;;;5069088;28;20025;-58
2024/02/21 07:59:33;;;;;;;30.67;13.90;;;9.20;99.90;;;;;;5065258;28;20027;-58
2024/02/21 08:01:58;;;;;;;28.92;14.40;;;9.20;99.90;;;;;;5067667;28;20386;-57
2024/02/21 08:04:25;;;;;;;21.15;12.82;;;9.20;99.90;;;;;;5078342;28;20077;-57
2024/02/21 08:06:55;;;;;;;24.13;14.55;;;9.20;99.90;;;;;;5076137;28;20029;-57
2024/02/21 08:09:23;;;;;;;28.95;15.00;;;9.20;99.90;;;;;;5074178;28;20476;-57
2024/02/21 08:11:49;;;;;;;33.13;14.57;;;9.20;99.90;;;;;;5073811;28;20036;-57
2024/02/21 08:14:16;;;;;;;22.20;14.13;;;9.20;99.90;;;;;;5068372;28;20039;-57
2024/02/21 08:16:42;;;;;;;28.73;14.75;;;9.20;99.90;;;;;;5072514;28;20108;-57
2024/02/21 08:19:08;;;;;;;27.25;14.02;;;9.30;99.90;;;;;;5079335;28;20118;-58
2024/02/21 08:21:33;;;;;;;27.77;14.27;;;9.20;99.90;;;;;;5073870;28;20031;-57
2024/02/21 08:23:59;;;;;;;24.95;13.25;;;9.20;99.90;;;;;;5074837;28;20030;-57
2024/02/21 08:26:27;;;;;;;25.70;12.68;;;9.20;99.90;;;;;;5076896;28;20024;-57
2024/02/21 08:28:53;;;;;;;25.77;12.82;;;9.20;99.90;;;;;;5078901;28;20114;-58
2024/02/21 08:31:19;;;;;;;28.30;13.25;;;9.30;99.90;;;;;;5074027;28;20518;-57
2024/02/21 08:33:45;;;;;;;25.50;13.45;;;9.30;99.90;;;;;;5067090;28;20389;-57
2024/02/21 08:36:18;;;;;;;22.88;12.80;;;9.30;99.90;;;;;;5074987;28;20055;-57
2024/02/21 08:38:44;;;;;;;24.98;12.73;;;9.30;99.90;;;;;;5074899;28;20055;-57
2024/02/21 08:41:09;;;;;;;25.83;12.70;;;9.40;99.90;;;;;;5074989;28;20117;-57
2024/02/21 08:43:35;;;;;;;27.95;13.20;;;9.40;99.90;;;;;;5077551;28;20024;-57
2024/02/21 08:46:01;;;;;;;24.67;12.57;;;9.40;99.90;;;;;;5073311;28;20020;-58
2024/02/21 08:48:26;;;;;;;23.67;12.07;;;9.40;99.90;;;;;;5073332;28;20032;-57
2024/02/21 08:50:54;;;;;;;19.42;12.35;;;9.40;99.90;;;;;;5073764;28;20415;-58
2024/02/21 08:53:19;;;;;;;34.03;14.30;;;9.50;99.90;;;;;;5076992;28;20435;-58
2024/02/21 08:55:46;;;;;;;31.63;12.60;;;9.50;99.90;;;;;;5072901;28;20107;-58
2024/02/21 08:58:12;;;;;;;22.58;11.45;;;9.60;99.90;;;;;;5068069;28;20033;-57
2024/02/21 09:00:37;;;;;;;22.17;11.13;;;9.70;99.90;;;;;;5072890;28;20150;-57
2024/02/21 09:03:03;;;;;;;30.38;12.00;;;9.80;99.90;;;;;;5068022;28;20446;-58
2024/02/21 09:05:29;;;;;;;24.63;11.77;;;9.90;99.90;;;;;;5074731;28;20016;-57
2024/02/21 09:07:54;;;;;;;28.90;12.00;;;9.90;99.90;;;;;;5074007;28;20024;-57
2024/02/21 09:10:21;;;;;;;18.58;11.18;;;9.90;99.90;;;;;;5079743;28;20098;-58
2024/02/21 09:12:47;;;;;;;30.33;12.80;;;10.00;99.90;;;;;;5074778;28;20030;-58
2024/02/21 09:15:13;;;;;;;20.05;10.23;;;10.00;99.90;;;;;;5068890;28;20020;-58
2024/02/21 09:17:39;;;;;;;22.17;11.40;;;9.90;99.90;;;;;;5071235;28;20040;-58
2024/02/21 09:20:06;;;;;;;22.38;11.00;;;9.80;99.90;;;;;;5067963;28;20032;-57
2024/02/21 09:22:34;;;;;;;24.38;10.68;;;9.80;99.90;;;;;;5076384;28;20431;-57
2024/02/21 09:25:00;;;;;;;20.55;11.15;;;9.80;99.90;;;;;;5077525;28;20078;-58
2024/02/21 09:27:25;;;;;;;23.15;10.68;;;9.70;99.90;;;;;;5072194;28;20025;-58
2024/02/21 09:29:51;;;;;;;18.05;9.88;;;9.70;99.90;;;;;;5069301;28;20510;-57
2024/02/21 09:32:17;;;;;;;26.88;12.38;;;9.70;99.90;;;;;;5065810;28;20098;-57
2024/02/21 09:34:43;;;;;;;19.40;11.30;;;9.70;99.90;;;;;;5076429;28;20024;-58
2024/02/21 09:37:08;;;;;;;23.30;10.55;;;9.70;99.90;;;;;;5074567;28;20367;-57
2024/02/21 09:39:34;;;;;;;22.33;10.55;;;9.80;99.90;;;;;;5072148;28;20047;-57
2024/02/21 09:42:05;;;;;;;27.17;11.43;;;9.80;99.90;;;;;;5072146;28;20185;-57
2024/02/21 09:44:37;;;;;;;21.77;10.52;;;9.90;99.90;;;;;;5068347;28;20016;-57
2024/02/21 09:47:06;;;;;;;18.50;9.77;;;9.90;99.90;;;;;;5063553;28;20423;-57
2024/02/21 09:49:37;;;;;;;22.45;11.77;;;9.90;99.90;;;;;;5067662;28;20072;-58
2024/02/21 09:52:05;;;;;;;19.55;10.45;;;9.90;99.90;;;;;;5074484;28;20029;-57
2024/02/21 09:54:33;;;;;;;18.80;9.13;;;10.00;99.90;;;;;;5074526;28;20387;-57
2024/02/21 09:57:00;;;;;;;20.05;9.85;;;10.00;99.90;;;;;;5072136;28;20029;-58
2024/02/21 09:59:27;;;;;;;23.83;10.05;;;10.10;99.90;;;;;;5074000;28;20146;-57
2024/02/21 10:01:53;;;;;;;22.02;9.88;;;10.20;99.90;;;;;;5068703;28;20043;-58
2024/02/21 10:04:20;;;;;;;22.55;9.13;;;10.30;99.90;;;;;;5067699;28;20016;-58
2024/02/21 10:06:46;;;;;;;19.40;8.70;;;10.50;99.90;;;;;;5069905;28;20024;-58
2024/02/21 10:09:28;;;;;;;20.80;7.97;;;10.80;99.90;;;;;;5070922;28;20454;-58
2024/02/21 10:11:55;;;;;;;18.08;8.02;;;11.10;99.90;;;;;;5075264;28;20024;-58
2024/02/21 10:14:20;;;;;;;17.63;8.07;;;11.50;99.90;;;;;;5076913;28;20411;-58
2024/02/21 10:16:58;;;;;;;14.10;7.55;;;12.00;99.90;;;;;;5073394;28;20167;-58
2024/02/21 10:19:24;;;;;;;18.90;7.07;;;12.30;99.90;;;;;;5077417;28;20508;-58
2024/02/21 10:22:09;;;;;;;17.85;6.90;;;12.60;99.90;;;;;;5075607;28;20032;-58
2024/02/21 10:24:37;;;;;;;11.15;6.57;;;12.70;99.90;;;;;;5070785;28;20433;-58
2024/02/21 10:27:04;;;;;;;13.15;5.93;;;12.90;99.90;;;;;;5066968;28;20052;-58
2024/02/21 10:29:31;;;;;;;12.48;6.53;;;12.90;99.90;;;;;;5071196;28;20036;-58
2024/02/21 10:32:13;;;;;;;12.25;5.53;;;13.10;99.90;;;;;;5069751;28;20033;-58
2024/02/21 10:34:40;;;;;;;12.95;5.13;;;13.40;99.90;;;;;;5074439;28;20027;-58
2024/02/21 10:37:07;;;;;;;10.10;5.13;;;13.40;99.90;;;;;;5071537;28;20103;-58
2024/02/21 10:39:38;;;;;;;10.02;4.47;;;13.90;99.90;;;;;;5074448;28;20323;-58
2024/02/21 10:42:04;;;;;;;9.63;4.32;;;13.60;99.90;;;;;;5070311;28;20478;-58
2024/02/21 10:44:32;;;;;;;8.65;4.50;;;13.90;99.90;;;;;;5077387;28;20021;-58
2024/02/21 10:46:58;;;;;;;9.18;4.20;;;13.70;99.90;;;;;;5067545;28;20050;-58
2024/02/21 10:49:29;;;;;;;11.68;4.97;;;13.70;99.90;;;;;;5075702;28;20021;-58
2024/02/21 10:52:15;;;;;;;10.60;4.55;;;13.40;99.90;;;;;;5075108;28;20036;-57
2024/02/21 10:54:57;;;;;;;11.32;4.30;;;13.10;99.90;;;;;;5069797;28;20098;-58
2024/02/21 10:57:24;;;;;;;11.77;5.15;;;12.80;99.90;;;;;;5068887;28;20040;-58
2024/02/21 10:59:50;;;;;;;9.95;5.13;;;12.50;99.90;;;;;;5069876;28;20573;-58
2024/02/21 11:02:16;;;;;;;12.38;5.50;;;12.40;99.90;;;;;;5078306;28;20566;-58
2024/02/21 11:04:42;;;;;;;14.23;6.00;;;12.30;99.90;;;;;;5072972;28;20024;-58
2024/02/21 11:07:08;;;;;;;11.35;5.50;;;12.40;99.90;;;;;;5073873;28;20493;-58
2024/02/21 11:09:34;;;;;;;11.68;4.97;;;12.60;99.90;;;;;;5071960;28;20097;-58
2024/02/21 11:12:05;;;;;;;12.23;5.22;;;12.80;99.90;;;;;;5071763;28;20020;-58
2024/02/21 11:14:35;;;;;;;;;;;13.30;99.90;;;;;;5071977;28;20020;-58
2024/02/21 11:17:02;;;;;;;6.90;3.63;;;13.30;99.90;;;;;;5073402;28;19905;-58
2024/02/21 11:19:31;;;;;;;10.00;3.60;;;13.30;99.90;;;;;;5072837;28;20017;-58
2024/02/21 11:22:01;;;;;;;13.88;4.10;;;13.40;99.90;;;;;;5074955;28;20039;-58
2024/02/21 11:24:27;;;;;;;12.15;3.95;;;13.40;99.80;;;;;;5074423;28;20016;-58
2024/02/21 11:26:53;;;;;;;11.13;4.18;;;13.30;98.60;;;;;;5071288;28;20456;-58
2024/02/21 11:29:24;;;;;;;7.97;3.63;;;13.60;99.00;;;;;;5076404;28;20013;-58
2024/02/21 11:31:50;;;;;;;8.27;3.60;;;14.30;97.30;;;;;;5069689;28;20394;-58
2024/02/21 11:34:19;;;;;;;11.90;3.80;;;14.90;96.10;;;;;;5074451;28;20032;-58
2024/02/21 11:36:52;;;;;;;10.70;4.10;;;14.70;96.20;;;;;;5073495;28;20020;-58
2024/02/21 11:39:22;;;;;;;9.38;3.80;;;14.20;96.30;;;;;;5072502;28;20386;-58
2024/02/21 11:42:04;;;;;;;10.52;4.13;;;14.00;97.20;;;;;;5070448;28;20031;-58
2024/02/21 11:44:30;;;;;;;10.57;4.28;;;13.60;96.90;;;;;;5072151;28;20170;-57
2024/02/21 11:46:59;;;;;;;8.60;4.38;;;13.20;97.80;;;;;;5072881;28;20560;-58
2024/02/21 11:49:29;;;;;;;10.65;3.72;;;13.00;98.50;;;;;;5074467;28;20036;-59
2024/02/21 11:51:59;;;;;;;9.97;4.13;;;12.90;99.40;;;;;;5071472;28;20051;-57
2024/02/21 11:54:24;;;;;;;15.75;3.95;;;13.00;99.50;;;;;;5074530;28;20268;-58
2024/02/21 11:56:50;;;;;;;9.55;3.97;;;12.80;99.40;;;;;;5073823;28;20029;-58
2024/02/21 11:59:16;;;;;;;8.00;4.15;;;12.70;99.70;;;;;;5074245;28;20021;-58
2024/02/21 12:01:42;;;;;;;8.18;3.50;;;12.50;99.70;;;;;;5074495;28;20032;-58
2024/02/21 12:04:08;;;;;;;10.98;4.40;;;12.60;99.90;;;;;;5070890;28;20016;-58
2024/02/21 12:06:34;;;;;;;11.20;4.10;;;12.50;99.90;;;;;;5073760;28;20012;-58
2024/02/21 12:08:59;;;;;;;7.82;3.72;;;12.40;99.80;;;;;;5073067;28;20461;-58
2024/02/21 12:11:25;;;;;;;12.60;3.80;;;12.40;99.90;;;;;;5074186;28;20592;-58
2024/02/21 12:14:04;;;;;;;13.82;4.68;;;12.50;99.90;;;;;;5069284;28;20028;-58
2024/02/21 12:16:33;;;;;;;10.57;3.93;;;12.50;99.90;;;;;;5072736;28;20389;-58
2024/02/21 12:19:00;;;;;;;14.93;4.03;;;12.50;99.90;;;;;;5068956;28;20044;-58
2024/02/21 12:21:36;;;;;;;15.23;4.88;;;12.60;99.90;;;;;;5071713;28;20640;-58
2024/02/21 12:24:13;;;;;;;7.45;3.80;;;12.50;99.40;;;;;;5071845;28;20524;-58
2024/02/21 12:26:38;;;;;;;10.38;3.45;;;12.40;99.40;;;;;;5074076;28;20150;-58
2024/02/21 12:29:04;;;;;;;9.18;3.25;;;12.40;99.70;;;;;;5069851;28;20457;-58
2024/02/21 12:31:29;;;;;;;8.45;3.53;;;12.30;99.90;;;;;;5073067;28;20027;-58
2024/02/21 12:33:55;;;;;;;9.00;3.83;;;12.30;99.90;;;;;;5071530;28;20077;-58
2024/02/21 12:36:20;;;;;;;9.60;3.72;;;12.30;99.90;;;;;;5068525;28;20381;-58